KMTN

Martin State Airport

Baltimore, Maryland, USA

KMTN 261545Z 26015G20KT 10SM BKN040 BKN090 23/16 A2973

Observed Flight Rules
May-26 @ 15:45 UTC (an hour ago)
 
Visual Flight Rules
Wind Visibility Clouds
260° at 15 knots
 Gusting to 20 knots
10 miles
  • Broken at 4,000' AGL
  • Broken at 9,000' AGL
Temperatures Readings
Current 23°C / 73°F
Dewpoint 16°C / 61°F
Humidity 65%
Altimeter 29.73" Hg
Pressure 1007 hPa
Elevation 7
Observed Flight Rules
May-26 @ 15:45 UTC
(an hour ago)
 
VFR
Wind Visibility
260° at 15 knots
 Gusting to 20 knots
10 miles
Clouds
  • Broken at 4,000' AGL
  • Broken at 9,000' AGL
Temperature Dewpoint
23°C / 73°F 16°C / 61°F
Humidity Altimeter Pressure
65% 29.73" Hg 1007 hPa